Time;durP1;ratioP1;P1;durP2;ratioP2;P2;SDS_P1;SDS_P2;PMS_P1;PMS_P2;Temp;Humidity;BMP_temperature;BMP_pressure;BME280_temperature;BME280_humidity;BME280_pressure;Samples;Min_cycle;Max_cycle;Signal;HPM_P1;HPM_P2
2022/03/21 00:00:28;;;;;;;16.50;12.67;;;;;;;2.02;45.64;101450.34;5073399;28;20430;-72
2022/03/21 00:02:57;;;;;;;20.90;12.43;;;;;;;2.00;46.10;101446.97;5072677;28;20521;-73
2022/03/21 00:05:25;;;;;;;16.27;11.53;;;;;;;2.29;45.22;101453.88;5072594;28;20478;-73
2022/03/21 00:07:54;;;;;;;18.27;11.50;;;;;;;2.49;45.21;101453.47;5072560;28;20438;-73
2022/03/21 00:10:21;;;;;;;14.13;11.70;;;;;;;2.55;45.81;101442.59;5072498;28;20437;-73
2022/03/21 00:12:51;;;;;;;12.70;10.90;;;;;;;2.53;44.64;101447.09;5072379;28;20480;-73
2022/03/21 00:15:19;;;;;;;15.87;11.23;;;;;;;2.53;44.65;101431.34;5073131;28;20468;-73
2022/03/21 00:17:46;;;;;;;11.63;10.33;;;;;;;2.54;44.25;101435.69;5072708;28;20514;-73
2022/03/21 00:20:15;;;;;;;14.17;10.97;;;;;;;2.55;44.91;101434.72;5072720;28;20431;-73
2022/03/21 00:22:41;;;;;;;16.57;11.87;;;;;;;2.65;45.19;101443.69;5072337;28;20860;-73
2022/03/21 00:25:10;;;;;;;17.20;11.20;;;;;;;2.68;45.44;101433.00;5072043;28;20442;-73
2022/03/21 00:27:37;;;;;;;14.53;10.80;;;;;;;2.64;44.99;101428.88;5071119;28;20503;-73
2022/03/21 00:30:05;;;;;;;13.63;11.70;;;;;;;2.59;45.08;101430.97;5073111;28;20199;-73
2022/03/21 00:32:32;;;;;;;15.03;10.00;;;;;;;2.52;45.15;101426.19;5072224;28;20434;-73
2022/03/21 00:34:59;;;;;;;12.83;9.70;;;;;;;2.39;45.50;101414.81;5072446;28;20495;-73
2022/03/21 00:37:26;;;;;;;16.40;11.07;;;;;;;2.35;45.00;101413.31;5072424;28;20450;-72
2022/03/21 00:39:53;;;;;;;16.77;10.60;;;;;;;2.23;46.54;101424.56;5072835;28;20489;-72
2022/03/21 00:42:22;;;;;;;16.63;11.43;;;;;;;2.22;47.25;101421.13;5071877;28;20441;-73
2022/03/21 00:44:49;;;;;;;12.33;11.03;;;;;;;2.32;46.64;101429.25;5072166;28;20434;-73
2022/03/21 00:47:16;;;;;;;16.20;11.30;;;;;;;2.51;46.64;101430.63;5072195;28;20529;-73
2022/03/21 00:49:44;;;;;;;15.00;11.37;;;;;;;2.58;46.03;101426.63;5072624;28;20925;-73
2022/03/21 00:52:10;;;;;;;13.53;10.80;;;;;;;2.72;45.82;101424.00;5075227;28;20445;-73
2022/03/21 00:54:37;;;;;;;13.03;10.83;;;;;;;2.80;45.57;101426.09;5076163;28;20899;-73
2022/03/21 00:57:05;;;;;;;13.63;10.77;;;;;;;2.74;45.42;101416.84;5076410;28;20430;-73
2022/03/21 00:59:33;;;;;;;15.87;11.47;;;;;;;2.94;45.68;101418.19;5076525;28;20442;-73
2022/03/21 01:01:59;;;;;;;14.23;10.80;;;;;;;2.85;45.55;101424.00;5076011;28;20430;-73
2022/03/21 01:04:26;;;;;;;17.13;11.43;;;;;;;2.59;45.33;101391.63;5076442;28;20500;-73
2022/03/21 01:06:53;;;;;;;16.60;11.23;;;;;;;2.74;45.60;101406.34;5075675;28;20492;-73
2022/03/21 01:09:20;;;;;;;14.33;10.03;;;;;;;2.68;44.57;101401.50;5076009;28;20964;-73
2022/03/21 01:11:47;;;;;;;13.67;10.30;;;;;;;2.63;43.80;101398.34;5075283;28;20507;-73
2022/03/21 01:14:14;;;;;;;13.90;10.20;;;;;;;2.62;43.58;101390.59;5076098;28;20481;-73
2022/03/21 01:16:42;;;;;;;10.37;8.60;;;;;;;2.71;43.53;101396.06;5075842;28;20870;-73
2022/03/21 01:19:09;;;;;;;10.17;9.17;;;;;;;2.73;43.26;101409.91;5076451;28;20511;-73
2022/03/21 01:21:36;;;;;;;9.77;8.03;;;;;;;2.62;42.59;101401.06;5075722;28;20430;-72
2022/03/21 01:24:03;;;;;;;9.97;8.27;;;;;;;2.57;43.54;101398.72;5075935;28;21026;-72
2022/03/21 01:26:29;;;;;;;9.10;7.40;;;;;;;2.55;42.92;101394.53;5075269;28;20441;-72
2022/03/21 01:28:57;;;;;;;14.77;8.30;;;;;;;2.48;42.89;101396.72;5075295;28;20454;-72
2022/03/21 01:31:24;;;;;;;8.83;8.03;;;;;;;2.46;43.25;101393.34;5075698;28;20871;-72
2022/03/21 01:33:53;;;;;;;8.63;7.90;;;;;;;2.37;43.92;101383.44;5075725;28;20488;-72
2022/03/21 01:36:20;;;;;;;11.33;8.60;;;;;;;2.29;44.78;101383.06;5075455;28;20430;-73
2022/03/21 01:38:47;;;;;;;8.73;8.03;;;;;;;2.31;44.59;101383.00;5075467;28;20454;-73
2022/03/21 01:41:14;;;;;;;12.83;9.30;;;;;;;2.34;44.65;101385.41;5075672;28;20437;-73
2022/03/21 01:44:01;;;;;;;13.13;8.57;;;;;;;2.39;45.79;101386.81;5075480;28;20500;-73
2022/03/21 01:46:28;;;;;;;9.83;8.83;;;;;;;2.37;45.51;101383.44;5075162;28;20438;-73
2022/03/21 01:48:57;;;;;;;10.97;9.90;;;;;;;2.09;46.09;101327.63;5075487;28;20442;-73
2022/03/21 01:51:25;;;;;;;13.97;8.90;;;;;;;2.47;45.88;101381.91;5076060;28;20442;-73
2022/03/21 01:56:38;;;;;;;13.03;8.73;;;;;;;2.34;45.81;101361.81;5075450;28;20480;-73
2022/03/21 01:59:05;;;;;;;9.60;8.70;;;;;;;2.57;45.97;101377.75;5075532;28;20865;-74
2022/03/21 02:01:32;;;;;;;13.47;9.67;;;;;;;2.64;46.03;101388.69;5077039;28;20460;-73
2022/03/21 02:04:00;;;;;;;14.10;10.23;;;;;;;2.75;45.76;101370.47;5078840;28;20434;-73
2022/03/21 02:06:28;;;;;;;14.07;10.63;;;;;;;2.82;45.00;101367.34;5079154;28;20461;-73
2022/03/21 02:08:56;;;;;;;10.43;9.20;;;;;;;2.93;45.58;101372.72;5078893;28;20434;-73
2022/03/21 02:11:25;;;;;;;14.57;10.83;;;;;;;2.92;45.27;101373.66;5077501;28;20848;-73
2022/03/21 02:13:53;;;;;;;13.77;10.47;;;;;;;2.77;45.75;101372.06;5076918;28;20480;-73
2022/03/21 02:16:20;;;;;;;15.20;12.23;;;;;;;2.65;46.28;101364.16;5075717;28;20442;-73
2022/03/21 02:18:48;;;;;;;15.47;10.63;;;;;;;2.72;46.13;101376.75;5075200;28;20434;-73
2022/03/21 02:21:23;;;;;;;12.77;10.40;;;;;;;2.83;45.28;101376.91;5074594;28;20678;-73
2022/03/21 02:23:56;;;;;;;12.13;10.83;;;;;;;2.95;44.85;101378.72;5075093;28;20418;-73
2022/03/21 02:26:26;;;;;;;13.40;11.83;;;;;;;3.05;44.83;101385.03;5074280;28;20491;-73
2022/03/21 02:28:54;;;;;;;12.10;9.90;;;;;;;3.27;44.70;101379.19;5075798;28;20512;-73
2022/03/21 02:31:22;;;;;;;16.10;11.30;;;;;;;3.33;44.35;101373.50;5074456;28;20517;-72
2022/03/21 02:33:49;;;;;;;13.00;10.67;;;;;;;3.43;44.70;101380.66;5074300;28;20527;-72
2022/03/21 02:36:18;;;;;;;13.73;11.03;;;;;;;3.39;44.13;101379.19;5074582;28;20516;-72
2022/03/21 02:38:47;;;;;;;12.57;9.93;;;;;;;3.38;43.86;101379.28;5073847;28;20888;-72
2022/03/21 02:41:15;;;;;;;15.70;10.23;;;;;;;3.43;43.28;101380.66;5074660;28;20188;-72
2022/03/21 02:43:54;;;;;;;11.07;10.07;;;;;;;3.49;43.49;101380.25;5074163;28;20445;-72
2022/03/21 02:46:21;;;;;;;14.50;9.80;;;;;;;3.45;43.46;101384.03;5074077;28;20442;-72
2022/03/21 02:48:49;;;;;;;20.13;11.53;;;;;;;3.41;43.02;101390.44;5075293;28;20445;-75
2022/03/21 02:51:18;;;;;;;13.33;11.57;;;;;;;3.53;43.74;101391.38;5089424;28;20627;-73
2022/03/21 02:53:46;;;;;;;14.83;11.37;;;;;;;3.58;43.17;101387.50;5094626;28;20477;-73
2022/03/21 02:56:13;;;;;;;22.80;13.13;;;;;;;3.68;42.93;101391.16;5094521;28;20445;-73
2022/03/21 02:58:39;;;;;;;16.00;10.10;;;;;;;3.68;42.81;101391.16;5093963;28;20940;-72
2022/03/21 03:01:09;;;;;;;14.10;11.50;;;;;;;3.76;43.78;101388.84;5094411;28;20441;-73
2022/03/21 03:03:36;;;;;;;17.30;11.63;;;;;;;3.81;42.80;101386.75;5089722;28;20490;-73
2022/03/21 03:06:03;;;;;;;18.03;11.93;;;;;;;3.75;42.71;101392.41;5083416;28;20633;-73
2022/03/21 03:08:30;;;;;;;14.93;11.97;;;;;;;3.83;42.94;101395.34;5082541;28;20278;-73
2022/03/21 03:10:56;;;;;;;12.43;10.80;;;;;;;3.89;42.21;101389.66;5082484;28;20184;-73
2022/03/21 03:13:23;;;;;;;14.53;11.70;;;;;;;3.90;43.21;101388.72;5081417;28;20253;-74
2022/03/21 03:15:50;;;;;;;12.83;11.00;;;;;;;3.88;42.99;101387.16;5082562;28;20625;-74
2022/03/21 03:18:18;;;;;;;12.47;11.23;;;;;;;3.87;43.25;101385.47;5087916;28;20195;-73
2022/03/21 03:20:49;;;;;;;13.03;11.60;;;;;;;3.91;42.96;101387.78;5093363;28;20253;-73
2022/03/21 03:23:16;;;;;;;16.47;11.07;;;;;;;3.93;42.67;101377.97;5094174;28;20583;-72
2022/03/21 03:25:43;;;;;;;18.00;11.93;;;;;;;3.96;42.44;101380.41;5093802;28;20198;-74
2022/03/21 03:28:09;;;;;;;15.47;12.30;;;;;;;3.98;43.14;101383.78;5094010;28;20445;-74
2022/03/21 03:30:36;;;;;;;16.10;11.57;;;;;;;4.00;43.58;101376.59;5094481;28;20494;-74
2022/03/21 03:33:03;;;;;;;13.37;11.47;;;;;;;4.01;43.11;101378.28;5098810;28;20195;-74
2022/03/21 03:35:31;;;;;;;16.70;12.27;;;;;;;4.01;42.88;101373.03;5103205;28;20284;-73
2022/03/21 03:37:58;;;;;;;17.17;12.80;;;;;;;3.90;42.48;101375.59;5098735;28;20195;-73
2022/03/21 03:40:25;;;;;;;16.23;11.97;;;;;;;3.83;43.47;101379.59;5103082;28;20474;-73
2022/03/21 03:42:52;;;;;;;14.57;11.70;;;;;;;3.80;43.16;101369.28;5101297;28;20449;-73
2022/03/21 03:45:19;;;;;;;20.03;11.70;;;;;;;3.79;43.01;101362.34;5102488;28;20195;-73
2022/03/21 03:47:45;;;;;;;19.07;12.83;;;;;;;3.75;42.96;101363.50;5098022;28;20686;-74
2022/03/21 03:50:12;;;;;;;22.53;14.03;;;;;;;3.74;42.46;101367.09;5095146;28;20191;-73
2022/03/21 03:52:45;;;;;;;18.90;12.33;;;;;;;3.61;42.28;101363.66;5093616;28;20486;-73
2022/03/21 03:55:12;;;;;;;21.10;12.80;;;;;;;3.58;43.09;101361.22;5093485;28;20221;-73
2022/03/21 03:57:39;;;;;;;20.70;12.93;;;;;;;3.56;43.49;101363.09;5093667;28;20520;-72
2022/03/21 04:00:08;;;;;;;16.10;12.77;;;;;;;3.58;43.52;101369.09;5092864;28;20191;-72
2022/03/21 04:03:44;;;;;;;21.03;13.50;;;;;;;3.61;43.91;101368.03;5093240;28;20857;-73
2022/03/21 04:05:22;;;;;;;15.47;12.33;;;;;;;3.56;44.19;101368.34;5092972;28;20321;-73
2022/03/21 04:07:51;;;;;;;18.07;13.40;;;;;;;3.56;44.40;101365.72;5092816;28;20445;-73
2022/03/21 04:10:17;;;;;;;22.07;12.97;;;;;;;3.49;45.29;101356.59;5092876;28;20433;-73
2022/03/21 04:12:46;;;;;;;20.40;12.77;;;;;;;3.42;45.47;101360.59;5093655;28;20498;-73
2022/03/21 04:15:13;;;;;;;18.27;12.63;;;;;;;3.24;44.21;101350.50;5092729;28;20509;-73
2022/03/21 04:17:40;;;;;;;20.30;14.77;;;;;;;2.98;45.31;101357.50;5092369;28;20441;-73
2022/03/21 04:20:08;;;;;;;27.33;14.93;;;;;;;2.93;45.66;101348.25;5092287;28;20437;-73
2022/03/21 04:22:35;;;;;;;20.63;13.97;;;;;;;3.00;45.00;101350.38;5092589;28;20498;-73
2022/03/21 04:25:05;;;;;;;19.17;13.77;;;;;;;3.08;44.60;101350.72;5091368;28;20453;-73
2022/03/21 04:27:32;;;;;;;20.60;14.67;;;;;;;3.14;44.75;101342.41;5092809;28;20433;-73
2022/03/21 04:29:59;;;;;;;18.30;13.40;;;;;;;3.18;45.42;101346.50;5092762;28;20441;-73
2022/03/21 04:32:26;;;;;;;24.07;15.33;;;;;;;3.17;44.70;101343.97;5092375;28;20429;-73
2022/03/21 04:34:53;;;;;;;20.97;15.90;;;;;;;3.18;45.60;101343.88;5092638;28;20477;-73
2022/03/21 04:37:20;;;;;;;26.83;15.60;;;;;;;3.22;45.23;101350.59;5092106;28;20495;-73
2022/03/21 04:39:47;;;;;;;26.37;16.00;;;;;;;3.31;45.41;101357.03;5091974;28;20441;-74
2022/03/21 04:42:16;;;;;;;23.07;14.33;;;;;;;3.39;44.21;101347.66;5092029;28;20437;-73
2022/03/21 04:44:44;;;;;;;24.70;14.03;;;;;;;3.34;44.97;101344.50;5092061;28;20971;-73
2022/03/21 04:47:11;;;;;;;20.23;13.73;;;;;;;3.37;44.87;101349.56;5093121;28;20490;-74
2022/03/21 04:49:38;;;;;;;23.10;14.40;;;;;;;3.22;44.77;101347.97;5091959;28;20441;-73
2022/03/21 04:52:06;;;;;;;20.03;13.90;;;;;;;3.13;44.71;101356.47;5091871;28;20441;-73
2022/03/21 04:54:33;;;;;;;17.73;12.60;;;;;;;3.11;44.30;101360.97;5092201;28;20512;-73
2022/03/21 04:57:00;;;;;;;18.80;13.40;;;;;;;3.36;43.89;101363.66;5092496;28;20433;-73
2022/03/21 04:59:28;;;;;;;19.87;12.97;;;;;;;3.56;43.21;101357.84;5092207;28;20444;-76
2022/03/21 05:01:55;;;;;;;18.53;13.00;;;;;;;3.73;42.72;101352.28;5092707;28;20458;-73
2022/03/21 05:04:22;;;;;;;16.97;12.47;;;;;;;3.92;42.46;101363.16;5091864;28;20502;-74
2022/03/21 05:06:48;;;;;;;18.03;12.53;;;;;;;4.08;42.77;101363.75;5093027;28;20425;-72
2022/03/21 05:09:15;;;;;;;19.70;12.37;;;;;;;4.47;41.81;101358.28;5092921;28;20849;-71
2022/03/21 05:11:42;;;;;;;16.80;11.93;;;;;;;4.93;40.75;101366.22;5092334;28;20503;-72
2022/03/21 05:14:09;;;;;;;16.57;12.87;;;;;;;5.04;40.02;101361.84;5092018;28;20191;-72
2022/03/21 05:16:38;;;;;;;17.77;12.03;;;;;;;5.15;39.73;101368.94;5091886;28;20195;-72
2022/03/21 05:19:07;;;;;;;14.97;11.40;;;;;;;5.16;38.90;101366.16;5092143;28;20205;-72
2022/03/21 05:21:33;;;;;;;20.03;12.53;;;;;;;5.22;38.61;101365.72;5091879;28;20252;-72
2022/03/21 05:32:13;;;;;;;29.40;18.23;;;;;;;5.76;37.73;101377.28;5092513;28;20232;-72
2022/03/21 05:37:24;;;;;;;24.80;15.87;;;;;;;5.98;37.01;101380.91;5094648;28;20255;-72
2022/03/21 05:42:35;;;;;;;39.67;16.33;;;;;;;6.92;36.51;101401.34;5095321;28;20647;-71
2022/03/21 05:45:02;;;;;;;27.40;14.40;;;;;;;7.48;35.37;101411.50;5095121;28;20623;-71
2022/03/21 05:47:30;;;;;;;25.70;14.50;;;;;;;7.90;33.71;101407.00;5095484;28;20229;-70
2022/03/21 05:49:56;;;;;;;18.67;13.30;;;;;;;8.09;33.94;101407.91;5094976;28;20253;-70
2022/03/21 05:52:23;;;;;;;17.70;13.27;;;;;;;8.52;33.11;101405.88;5095024;28;20195;-71
2022/03/21 05:54:50;;;;;;;19.30;14.13;;;;;;;8.68;32.50;101405.31;5095379;28;20218;-70
2022/03/21 05:57:17;;;;;;;19.60;14.93;;;;;;;9.18;31.60;101410.38;5095052;28;20192;-71
2022/03/21 06:02:28;;;;;;;26.40;19.07;;;;;;;9.10;30.98;101407.59;5094843;28;20182;-75
2022/03/21 06:04:56;;;;;;;19.83;14.87;;;;;;;9.62;31.07;101416.88;5094977;28;20231;-74
2022/03/21 06:07:22;;;;;;;16.93;12.90;;;;;;;10.10;30.00;101417.59;5094775;28;20632;-74
2022/03/21 06:09:49;;;;;;;23.10;11.10;;;;;;;9.60;29.91;101413.53;5095587;28;20196;-74
2022/03/21 06:12:16;;;;;;;15.47;12.10;;;;;;;9.39;30.17;101419.00;5075211;28;20286;-76
2022/03/21 06:14:43;;;;;;;18.37;12.43;;;;;;;9.27;30.42;101420.13;5074661;28;20647;-75
2022/03/21 06:17:11;;;;;;;17.93;12.40;;;;;;;9.23;30.29;101420.56;5074378;28;20245;-74
2022/03/21 06:19:37;;;;;;;19.63;12.20;;;;;;;9.04;30.99;101413.47;5075047;28;20196;-73
2022/03/21 06:22:06;;;;;;;18.13;11.60;;;;;;;9.02;31.04;101417.19;5074530;28;20200;-76
2022/03/21 06:24:33;;;;;;;22.17;11.20;;;;;;;9.17;30.87;101424.63;5074304;28;20721;-79
2022/03/21 06:26:59;;;;;;;14.07;10.13;;;;;;;9.34;29.81;101426.56;5074782;28;20222;-75
2022/03/21 06:29:28;;;;;;;19.53;10.27;;;;;;;9.46;30.64;101429.88;5073724;28;20713;-81
2022/03/21 06:31:56;;;;;;;20.23;12.77;;;;;;;9.36;29.41;101419.28;5073426;28;20214;-75
2022/03/21 06:34:22;;;;;;;17.83;10.97;;;;;;;9.38;30.50;101401.44;5085088;28;20187;-72
2022/03/21 06:36:50;;;;;;;13.67;10.77;;;;;;;9.79;30.66;101426.75;5085115;28;20257;-74
2022/03/21 06:39:18;;;;;;;14.20;11.47;;;;;;;10.49;29.74;101411.09;5074235;28;20279;-69
2022/03/21 06:41:45;;;;;;;13.70;10.53;;;;;;;10.37;28.73;101422.91;5088935;28;20203;-72
2022/03/21 06:44:12;;;;;;;12.90;10.03;;;;;;;10.31;28.82;101407.56;5076882;28;20196;-72
2022/03/21 06:46:38;;;;;;;17.67;11.67;;;;;;;10.23;29.04;101415.44;5074050;28;20207;-71
2022/03/21 06:49:05;;;;;;;13.73;10.77;;;;;;;10.53;28.63;101413.31;5077751;28;20676;-72
2022/03/21 06:51:32;;;;;;;21.43;11.53;;;;;;;10.72;28.48;101410.56;5087470;28;20251;-72
2022/03/21 06:53:58;;;;;;;17.63;11.07;;;;;;;10.78;28.35;101417.91;5073530;28;20242;-73
2022/03/21 06:56:27;;;;;;;17.27;11.37;;;;;;;10.84;28.51;101414.66;5073533;28;20776;-71
2022/03/21 06:58:53;;;;;;;13.33;11.50;;;;;;;10.85;28.53;101416.34;5073760;28;20253;-73
2022/03/21 07:01:20;;;;;;;17.77;11.87;;;;;;;10.63;28.42;101408.78;5086117;28;20188;-73
2022/03/21 07:03:47;;;;;;;16.23;11.70;;;;;;;10.57;27.95;101408.53;5092437;28;20203;-72
2022/03/21 07:06:14;;;;;;;17.77;10.80;;;;;;;10.47;27.76;101402.47;5094913;28;20252;-73
2022/03/21 07:08:40;;;;;;;11.00;9.87;;;;;;;10.93;27.56;101394.28;5085427;28;20196;-71
2022/03/21 07:11:12;;;;;;;14.63;11.17;;;;;;;11.42;27.23;101411.50;5082935;28;20251;-70
2022/03/21 07:13:40;;;;;;;13.37;10.23;;;;;;;11.95;26.44;101402.41;5089505;28;20209;-70
2022/03/21 07:16:08;;;;;;;16.23;10.90;;;;;;;12.19;25.76;101405.22;5093508;28;20734;-69
2022/03/21 07:18:34;;;;;;;16.53;10.40;;;;;;;12.20;25.53;101404.19;5075049;28;20252;-72
2022/03/21 07:21:01;;;;;;;14.30;9.97;;;;;;;12.32;25.28;101408.25;5090368;28;20231;-71
2022/03/21 07:23:28;;;;;;;23.60;11.63;;;;;;;12.21;25.44;101402.38;5093095;28;20239;-70
2022/03/21 07:25:55;;;;;;;21.03;7.07;;;;;;;12.45;51.83;101371.31;5093394;28;20590;-78
2022/03/21 07:28:21;;;;;;;23.57;10.80;;;;;;;12.68;25.32;101393.72;5093210;28;20196;-74
2022/03/21 07:30:50;;;;;;;11.07;9.57;;;;;;;12.54;25.71;101397.00;5093076;28;20198;-67
2022/03/21 07:33:16;;;;;;;16.83;10.67;;;;;;;12.60;25.48;101396.38;5092965;28;20188;-71
2022/03/21 07:35:43;;;;;;;11.57;10.10;;;;;;;12.68;24.21;101393.72;5090217;28;20215;-72
2022/03/21 07:38:10;;;;;;;21.30;10.17;;;;;;;12.43;23.97;101380.47;5081806;28;20720;-71
2022/03/21 07:40:37;;;;;;;12.70;9.40;;;;;;;12.41;24.16;101371.81;5085022;28;20189;-71
2022/03/21 07:43:03;;;;;;;12.83;11.53;;;;;;;13.05;23.99;101385.28;5092115;28;20622;-71
2022/03/21 07:48:16;;;;;;;10.47;9.27;;;;;;;14.18;22.15;101390.28;5090845;28;20182;-74
2022/03/21 07:50:42;;;;;;;10.43;9.37;;;;;;;14.67;21.93;101382.91;5091864;28;20191;-74
2022/03/21 07:53:09;;;;;;;11.23;9.70;;;;;;;15.19;21.57;101383.84;5092621;28;20702;-74
2022/03/21 07:55:36;;;;;;;10.87;9.83;;;;;;;15.80;21.11;101380.97;5093105;28;20226;-74
2022/03/21 07:58:04;;;;;;;14.73;10.93;;;;;;;16.01;20.59;101369.53;5092859;28;20199;-74
2022/03/21 08:00:31;;;;;;;11.27;10.13;;;;;;;16.13;20.63;101381.44;5091430;28;20191;-75
2022/03/21 08:02:58;;;;;;;10.90;9.80;;;;;;;16.40;20.25;101368.19;5092935;28;20195;-75
2022/03/21 08:05:28;;;;;;;10.73;9.03;;;;;;;16.37;19.64;101370.41;5092860;28;20329;-73
2022/03/21 08:07:55;;;;;;;10.00;9.27;;;;;;;16.42;19.87;101370.72;5092559;28;20195;-74
2022/03/21 08:10:24;;;;;;;13.90;9.80;;;;;;;16.70;19.96;101366.28;5092623;28;20245;-74
2022/03/21 08:12:50;;;;;;;14.20;10.47;;;;;;;16.69;19.58;101360.09;5092825;28;20241;-75
2022/03/21 08:15:17;;;;;;;16.50;9.30;;;;;;;16.77;19.37;101368.00;5092395;28;20710;-74
2022/03/21 08:17:52;;;;;;;16.37;9.40;;;;;;;16.97;19.46;101373.56;5092585;28;20211;-74
2022/03/21 08:20:20;;;;;;;13.03;9.37;;;;;;;16.94;19.19;101373.97;5093495;28;20183;-74
2022/03/21 08:22:48;;;;;;;12.33;9.53;;;;;;;16.70;19.17;101361.72;5092307;28;20575;-74
2022/03/21 08:25:16;;;;;;;14.43;9.83;;;;;;;16.70;19.54;101360.91;5092168;28;20199;-74
2022/03/21 08:27:44;;;;;;;15.53;11.00;;;;;;;16.57;19.25;101360.78;5092096;28;20233;-75
2022/03/21 08:30:12;;;;;;;18.57;10.00;;;;;;;16.54;19.89;101355.78;5092123;28;20238;-74
2022/03/21 08:32:39;;;;;;;13.37;10.77;;;;;;;16.82;19.43;101362.09;5092946;28;20193;-75
2022/03/21 08:35:06;;;;;;;12.27;10.03;;;;;;;17.08;19.21;101365.03;5085192;28;20195;-74
2022/03/21 08:37:33;;;;;;;9.10;8.30;;;;;;;17.18;17.99;101360.13;5084386;28;20269;-74
2022/03/21 08:40:01;;;;;;;9.90;7.80;;;;;;;17.17;18.23;101353.13;5078762;28;20246;-77
2022/03/21 08:42:29;;;;;;;18.97;8.87;;;;;;;16.94;18.96;101363.25;5078107;28;20252;-74
2022/03/21 08:44:55;;;;;;;11.27;7.80;;;;;;;16.58;24.46;101346.34;5078626;28;20192;-76
2022/03/21 08:47:22;;;;;;;7.93;7.10;;;;;;;17.04;25.77;101342.25;5080840;28;20191;-76
2022/03/21 08:49:49;;;;;;;7.70;7.10;;;;;;;17.75;25.35;101347.38;5084726;28;20678;-78
2022/03/21 08:52:15;;;;;;;8.57;7.90;;;;;;;18.39;18.44;101349.63;5082347;28;20258;-74
2022/03/21 08:54:42;;;;;;;10.70;7.97;;;;;;;18.38;17.96;101349.81;5080058;28;20241;-79
2022/03/21 08:57:10;;;;;;;8.90;8.00;;;;;;;18.42;17.77;101351.91;5081846;28;20276;-76
2022/03/21 08:59:37;;;;;;;8.80;7.97;;;;;;;18.39;17.43;101346.09;5081622;28;20245;-76
2022/03/21 09:02:04;;;;;;;9.33;8.30;;;;;;;17.94;17.34;101347.53;5080069;28;20191;-74
2022/03/21 09:04:31;;;;;;;9.63;8.80;;;;;;;17.59;17.74;101345.00;5088690;28;20192;-73
2022/03/21 09:06:58;;;;;;;11.00;7.90;;;;;;;16.75;18.28;101342.38;5091803;28;20238;-73
2022/03/21 09:09:25;;;;;;;12.87;8.30;;;;;;;16.61;18.76;101340.59;5091937;28;20264;-73
2022/03/21 09:11:52;;;;;;;8.63;7.90;;;;;;;16.25;18.62;101329.81;5078373;28;20200;-74
2022/03/21 09:14:20;;;;;;;8.40;7.70;;;;;;;16.35;19.16;101340.25;5075641;28;20656;-77
2022/03/21 09:16:49;;;;;;;8.00;7.40;;;;;;;16.39;18.68;101338.84;5075278;28;20711;-76
2022/03/21 09:19:16;;;;;;;15.20;7.77;;;;;;;15.59;19.36;101337.97;5075934;28;20195;-74
2022/03/21 09:21:43;;;;;;;8.70;7.83;;;;;;;15.23;19.69;101326.25;5085892;28;20264;-76
2022/03/21 09:24:10;;;;;;;9.47;8.70;;;;;;;15.00;19.89;101334.31;5075041;28;20287;-75
2022/03/21 09:26:37;;;;;;;10.23;9.07;;;;;;;14.87;20.13;101336.75;5075088;28;20287;-79
2022/03/21 09:29:05;;;;;;;14.17;9.73;;;;;;;14.52;20.88;101323.97;5075347;28;20246;-76
2022/03/21 09:31:33;;;;;;;11.00;9.50;;;;;;;14.62;20.74;101321.91;5075663;28;20207;-75
2022/03/21 09:34:00;;;;;;;10.57;8.33;;;;;;;14.63;20.43;101318.19;5074959;28;20628;-75
2022/03/21 09:36:27;;;;;;;10.93;8.07;;;;;;;14.93;20.55;101309.28;5074875;28;20220;-75
2022/03/21 09:38:54;;;;;;;10.97;7.47;;;;;;;14.94;20.69;101316.31;5075271;28;20200;-76
2022/03/21 09:41:25;;;;;;;9.87;7.77;;;;;;;14.77;19.92;101309.41;5075078;28;20203;-75
2022/03/21 09:43:53;;;;;;;8.73;7.93;;;;;;;14.37;20.38;101322.22;5076138;28;20187;-77
2022/03/21 09:46:21;;;;;;;8.30;7.67;;;;;;;14.17;20.98;101303.09;5074703;28;20724;-74
2022/03/21 09:48:50;;;;;;;8.20;7.40;;;;;;;13.97;21.25;101301.03;5075256;28;20204;-74
2022/03/21 09:51:21;;;;;;;8.33;7.53;;;;;;;14.18;21.31;101307.41;5075068;28;20203;-77
2022/03/21 09:53:48;;;;;;;13.17;8.00;;;;;;;14.66;21.20;101301.81;5074293;28;20215;-77
2022/03/21 09:56:15;;;;;;;11.03;7.67;;;;;;;14.93;20.22;101290.56;5074566;28;20224;-78
2022/03/21 09:58:42;;;;;;;8.60;7.80;;;;;;;15.02;20.16;101291.31;5074787;28;20253;-76
2022/03/21 10:01:11;;;;;;;9.10;8.27;;;;;;;15.10;20.24;101284.06;5074253;28;20192;-76
2022/03/21 10:03:38;;;;;;;10.93;8.60;;;;;;;15.47;20.65;101291.22;5074833;28;20382;-75
2022/03/21 10:06:26;;;;;;;7.93;7.33;;;;;;;15.18;20.22;101286.66;5074537;28;20284;-78
2022/03/21 10:09:05;;;;;;;9.53;8.10;;;;;;;15.46;20.13;101287.75;5075022;28;20261;-77
2022/03/21 10:11:31;;;;;;;16.20;8.70;;;;;;;15.37;20.00;101254.03;5074380;28;20636;-78
2022/03/21 10:14:00;;;;;;;10.33;7.03;;;;;;;15.78;19.64;101278.50;5074734;28;20192;-78
2022/03/21 10:16:26;;;;;;;8.67;7.87;;;;;;;15.39;19.99;101278.75;5074406;28;20227;-77
2022/03/21 10:18:58;;;;;;;12.10;9.37;;;;;;;15.27;20.35;101290.91;5074570;28;20203;-76
2022/03/21 10:21:29;;;;;;;10.03;8.87;;;;;;;15.07;20.61;101289.75;5074551;28;20192;-77
2022/03/21 10:24:02;;;;;;;8.33;7.30;;;;;;;14.54;20.78;101287.19;5081005;28;20195;-77
2022/03/21 10:26:30;;;;;;;8.07;7.37;;;;;;;14.60;20.52;101275.78;5094774;28;20240;-77
2022/03/21 10:28:59;;;;;;;8.00;7.20;;;;;;;14.72;20.63;101279.72;5094096;28;20200;-80
2022/03/21 10:31:37;;;;;;;8.37;7.57;;;;;;;14.58;20.87;101277.78;5094691;28;20187;-82
2022/03/21 10:34:06;;;;;;;7.93;7.33;;;;;;;14.34;20.76;101269.94;5094543;28;20250;-78
2022/03/21 10:36:34;;;;;;;8.27;7.43;;;;;;;14.55;20.75;101269.31;5090326;28;20251;-78
2022/03/21 10:39:08;;;;;;;8.00;7.40;;;;;;;14.75;20.92;101260.59;5079340;28;20272;-81
2022/03/21 10:41:37;;;;;;;8.53;6.87;;;;;;;14.96;20.68;101260.75;5083258;28;20234;-77
2022/03/21 10:44:06;;;;;;;8.10;7.40;;;;;;;14.63;20.99;101263.91;5073432;28;20218;-80
2022/03/21 10:46:33;;;;;;;9.20;8.00;;;;;;;14.89;20.69;101249.13;5092203;28;20586;-76
2022/03/21 10:49:05;;;;;;;8.00;7.20;;;;;;;15.02;21.14;101254.69;5093914;28;20199;-75
2022/03/21 10:51:49;;;;;;;8.93;8.10;;;;;;;15.19;20.49;101245.47;5093787;28;20241;-77
2022/03/21 10:54:42;;;;;;;8.27;7.33;;;;;;;15.49;20.21;101236.47;5094061;28;20195;-75
2022/03/21 10:57:26;;;;;;;7.60;7.10;;;;;;;15.45;20.11;101232.47;5093994;28;20286;-83
2022/03/21 11:00:11;;;;;;;7.60;7.10;;;;;;;15.60;20.07;101233.31;5097528;28;20576;-78
2022/03/21 11:02:48;;;;;;;15.83;7.60;;;;;;;14.63;20.96;101227.25;5093958;28;20617;-75
2022/03/21 11:05:16;;;;;;;7.40;6.90;;;;;;;14.89;20.93;101227.72;5091015;28;20223;-73
2022/03/21 11:07:45;;;;;;;7.03;6.53;;;;;;;15.14;20.28;101221.09;5085978;28;20191;-73
2022/03/21 11:10:12;;;;;;;7.20;6.70;;;;;;;15.02;20.01;101208.34;5076308;28;20188;-78
2022/03/21 11:12:41;;;;;;;8.10;7.37;;;;;;;14.82;20.66;101221.41;5078782;28;20188;-78
2022/03/21 11:15:09;;;;;;;8.03;7.37;;;;;;;14.59;21.19;101217.13;5085590;28;20191;-81
2022/03/21 11:17:37;;;;;;;7.60;6.60;;;;;;;14.67;20.65;101209.84;5082397;28;20706;-76
2022/03/21 11:20:05;;;;;;;7.77;7.10;;;;;;;14.83;20.29;101195.50;5083809;28;20232;-77
2022/03/21 11:22:34;;;;;;;9.00;6.80;;;;;;;14.87;20.83;101207.50;5082176;28;20199;-74
2022/03/21 11:25:04;;;;;;;7.30;6.70;;;;;;;14.94;20.49;101195.88;5082315;28;20187;-76
2022/03/21 11:27:56;;;;;;;7.90;7.30;;;;;;;15.15;20.84;101190.63;5082201;28;20200;-78
2022/03/21 11:30:30;;;;;;;13.20;7.60;;;;;;;15.36;20.60;101190.75;5083772;28;20188;-77
2022/03/21 11:33:05;;;;;;;7.23;6.47;;;;;;;15.39;20.09;101182.34;5072450;28;20242;-77
2022/03/21 11:35:33;;;;;;;8.93;8.03;;;;;;;15.40;20.55;101181.34;5083693;28;20179;-76
2022/03/21 11:38:24;;;;;;;11.03;7.30;;;;;;;15.27;20.70;101183.81;5091389;28;20264;-78
2022/03/21 11:41:10;;;;;;;7.57;6.90;;;;;;;14.94;20.16;101177.16;5083206;28;20282;-76
2022/03/21 11:43:37;;;;;;;7.40;6.73;;;;;;;15.04;20.58;101175.03;5073313;28;20188;-75
2022/03/21 11:46:25;;;;;;;9.27;7.13;;;;;;;14.81;20.44;101171.59;5087161;28;20244;-76